Conata, South Dakota
Current Conditions -  °F | °C
As of 2:52 PM on Tuesday 25 Nov 2014 (Local Time) from KRAP Reporting Station
Broken Clouds Broken Clouds  
Wind Chill: 24°   Ceiling: 4900
Heat Index: 36°   Visibility: 10mi
Dew Point: 31°   Wind: 26mph
Humidity: 82%   Direction: 320°NW
Pressure: 29.79"   Gusts: 38mph
Location:  43.793°N, 102.433°W
Report Text: KRAP 252152Z 32023G33KT 10SM FEW031 SCT040 BKN049 02/M01 A2979 RMK AO2 PK WND 32033/2149 SLP120 T00221006 PNO $
Loading
Personal Weather Stations






























Interactive Weather Map New forecast layout! Learn more

10-Day Weather Forecast

Advertisements
Track Severe Weather on mobile